sensor_id;sensor_type;location;lat;lon;timestamp;P1;durP1;ratioP1;P2;durP2;ratioP2
13999;SDS011;7075;53.574;10.054;2023-02-01T00:01:45;458.75;;;429.80;;
13999;SDS011;7075;53.574;10.054;2023-02-01T00:04:11;439.10;;;412.43;;
13999;SDS011;7075;53.574;10.054;2023-02-01T00:06:37;464.85;;;436.20;;
13999;SDS011;7075;53.574;10.054;2023-02-01T00:09:03;496.03;;;465.87;;
13999;SDS011;7075;53.574;10.054;2023-02-01T00:11:29;547.80;;;515.10;;
13999;SDS011;7075;53.574;10.054;2023-02-01T00:13:54;613.28;;;575.03;;
13999;SDS011;7075;53.574;10.054;2023-02-01T00:16:21;630.17;;;590.97;;
13999;SDS011;7075;53.574;10.054;2023-02-01T00:18:50;602.95;;;565.63;;
13999;SDS011;7075;53.574;10.054;2023-02-01T00:21:17;520.33;;;489.37;;
13999;SDS011;7075;53.574;10.054;2023-02-01T00:23:45;541.40;;;509.00;;
13999;SDS011;7075;53.574;10.054;2023-02-01T00:29:00;506.08;;;475.48;;
13999;SDS011;7075;53.574;10.054;2023-02-01T00:31:29;521.10;;;488.88;;
13999;SDS011;7075;53.574;10.054;2023-02-01T00:33:55;505.42;;;474.58;;
13999;SDS011;7075;53.574;10.054;2023-02-01T00:36:24;493.90;;;462.80;;
13999;SDS011;7075;53.574;10.054;2023-02-01T00:38:50;504.30;;;472.88;;
13999;SDS011;7075;53.574;10.054;2023-02-01T00:41:18;529.90;;;495.73;;
13999;SDS011;7075;53.574;10.054;2023-02-01T00:43:47;496.20;;;464.17;;
13999;SDS011;7075;53.574;10.054;2023-02-01T00:46:13;507.75;;;475.05;;
13999;SDS011;7075;53.574;10.054;2023-02-01T00:48:40;498.53;;;466.40;;
13999;SDS011;7075;53.574;10.054;2023-02-01T00:51:08;503.85;;;471.75;;
13999;SDS011;7075;53.574;10.054;2023-02-01T00:53:36;512.30;;;480.13;;
13999;SDS011;7075;53.574;10.054;2023-02-01T00:56:04;506.67;;;474.33;;
13999;SDS011;7075;53.574;10.054;2023-02-01T00:58:33;511.30;;;479.92;;
13999;SDS011;7075;53.574;10.054;2023-02-01T01:01:03;570.58;;;534.03;;
13999;SDS011;7075;53.574;10.054;2023-02-01T01:03:30;519.47;;;485.92;;
13999;SDS011;7075;53.574;10.054;2023-02-01T01:05:59;557.47;;;522.63;;
13999;SDS011;7075;53.574;10.054;2023-02-01T01:08:29;567.23;;;531.77;;
13999;SDS011;7075;53.574;10.054;2023-02-01T01:10:55;577.50;;;541.03;;
13999;SDS011;7075;53.574;10.054;2023-02-01T01:13:22;594.05;;;555.90;;
13999;SDS011;7075;53.574;10.054;2023-02-01T01:15:48;564.60;;;529.00;;
13999;SDS011;7075;53.574;10.054;2023-02-01T01:18:13;544.67;;;510.75;;
13999;SDS011;7075;53.574;10.054;2023-02-01T01:20:39;582.72;;;545.72;;
13999;SDS011;7075;53.574;10.054;2023-02-01T01:23:06;576.70;;;540.17;;
13999;SDS011;7075;53.574;10.054;2023-02-01T01:25:37;577.70;;;541.28;;
13999;SDS011;7075;53.574;10.054;2023-02-01T01:28:04;582.65;;;545.72;;
13999;SDS011;7075;53.574;10.054;2023-02-01T01:30:30;585.90;;;548.60;;
13999;SDS011;7075;53.574;10.054;2023-02-01T01:32:55;555.07;;;520.17;;
13999;SDS011;7075;53.574;10.054;2023-02-01T01:35:21;559.15;;;524.13;;
13999;SDS011;7075;53.574;10.054;2023-02-01T01:37:47;576.55;;;540.00;;
13999;SDS011;7075;53.574;10.054;2023-02-01T01:40:13;527.42;;;493.95;;
13999;SDS011;7075;53.574;10.054;2023-02-01T01:42:40;556.83;;;521.40;;
13999;SDS011;7075;53.574;10.054;2023-02-01T01:45:16;573.40;;;537.28;;
13999;SDS011;7075;53.574;10.054;2023-02-01T01:47:48;576.15;;;539.85;;
13999;SDS011;7075;53.574;10.054;2023-02-01T01:50:18;571.53;;;535.67;;
13999;SDS011;7075;53.574;10.054;2023-02-01T01:52:48;566.22;;;530.70;;
13999;SDS011;7075;53.574;10.054;2023-02-01T01:55:15;558.17;;;523.28;;
13999;SDS011;7075;53.574;10.054;2023-02-01T01:57:44;565.50;;;529.65;;
13999;SDS011;7075;53.574;10.054;2023-02-01T02:00:16;562.93;;;527.47;;
13999;SDS011;7075;53.574;10.054;2023-02-01T02:02:44;572.20;;;536.05;;
13999;SDS011;7075;53.574;10.054;2023-02-01T02:05:12;594.93;;;558.17;;
13999;SDS011;7075;53.574;10.054;2023-02-01T02:07:40;609.30;;;570.45;;
13999;SDS011;7075;53.574;10.054;2023-02-01T02:10:10;614.33;;;575.30;;
13999;SDS011;7075;53.574;10.054;2023-02-01T02:12:38;635.92;;;594.22;;
13999;SDS011;7075;53.574;10.054;2023-02-01T02:15:06;658.63;;;614.92;;
13999;SDS011;7075;53.574;10.054;2023-02-01T02:17:40;655.70;;;613.08;;
13999;SDS011;7075;53.574;10.054;2023-02-01T02:20:30;648.20;;;605.35;;
13999;SDS011;7075;53.574;10.054;2023-02-01T02:23:33;625.15;;;584.90;;
13999;SDS011;7075;53.574;10.054;2023-02-01T02:26:34;633.15;;;592.05;;
13999;SDS011;7075;53.574;10.054;2023-02-01T02:32:04;700.20;;;652.78;;
13999;SDS011;7075;53.574;10.054;2023-02-01T02:34:55;741.55;;;689.63;;
13999;SDS011;7075;53.574;10.054;2023-02-01T02:37:38;778.15;;;723.55;;
13999;SDS011;7075;53.574;10.054;2023-02-01T02:45:53;805.05;;;748.25;;
13999;SDS011;7075;53.574;10.054;2023-02-01T02:48:51;794.70;;;740.38;;
13999;SDS011;7075;53.574;10.054;2023-02-01T02:51:28;805.38;;;750.20;;
13999;SDS011;7075;53.574;10.054;2023-02-01T02:54:25;826.10;;;768.72;;
13999;SDS011;7075;53.574;10.054;2023-02-01T02:57:12;817.22;;;760.42;;
13999;SDS011;7075;53.574;10.054;2023-02-01T03:00:00;871.20;;;809.55;;
13999;SDS011;7075;53.574;10.054;2023-02-01T03:02:46;868.40;;;806.05;;
13999;SDS011;7075;53.574;10.054;2023-02-01T03:05:32;858.50;;;797.85;;
13999;SDS011;7075;53.574;10.054;2023-02-01T03:13:02;902.28;;;834.85;;
13999;SDS011;7075;53.574;10.054;2023-02-01T03:18:11;908.25;;;836.10;;
13999;SDS011;7075;53.574;10.054;2023-02-01T03:20:41;924.08;;;849.80;;
13999;SDS011;7075;53.574;10.054;2023-02-01T03:23:11;918.80;;;847.03;;
13999;SDS011;7075;53.574;10.054;2023-02-01T03:25:40;921.05;;;850.75;;
13999;SDS011;7075;53.574;10.054;2023-02-01T03:28:07;905.33;;;837.75;;
13999;SDS011;7075;53.574;10.054;2023-02-01T03:30:36;893.28;;;825.22;;
13999;SDS011;7075;53.574;10.054;2023-02-01T03:33:07;870.17;;;805.58;;
13999;SDS011;7075;53.574;10.054;2023-02-01T03:41:03;891.97;;;825.57;;
13999;SDS011;7075;53.574;10.054;2023-02-01T03:43:34;886.05;;;819.97;;
13999;SDS011;7075;53.574;10.054;2023-02-01T03:46:37;876.92;;;811.40;;
13999;SDS011;7075;53.574;10.054;2023-02-01T03:49:28;861.20;;;799.80;;
13999;SDS011;7075;53.574;10.054;2023-02-01T03:51:59;878.90;;;814.80;;
13999;SDS011;7075;53.574;10.054;2023-02-01T03:54:25;860.30;;;798.05;;
13999;SDS011;7075;53.574;10.054;2023-02-01T03:56:53;891.53;;;826.60;;
13999;SDS011;7075;53.574;10.054;2023-02-01T03:59:21;898.80;;;833.40;;
13999;SDS011;7075;53.574;10.054;2023-02-01T04:01:47;902.13;;;837.63;;
13999;SDS011;7075;53.574;10.054;2023-02-01T04:04:12;886.05;;;823.00;;
13999;SDS011;7075;53.574;10.054;2023-02-01T04:06:48;871.40;;;808.05;;
13999;SDS011;7075;53.574;10.054;2023-02-01T04:09:14;861.33;;;799.88;;
13999;SDS011;7075;53.574;10.054;2023-02-01T04:11:40;890.47;;;823.90;;
13999;SDS011;7075;53.574;10.054;2023-02-01T04:14:05;876.40;;;812.83;;
13999;SDS011;7075;53.574;10.054;2023-02-01T04:16:32;866.87;;;803.83;;
13999;SDS011;7075;53.574;10.054;2023-02-01T04:18:58;834.92;;;776.65;;
13999;SDS011;7075;53.574;10.054;2023-02-01T04:21:25;830.03;;;772.55;;
13999;SDS011;7075;53.574;10.054;2023-02-01T04:23:51;856.73;;;797.63;;
13999;SDS011;7075;53.574;10.054;2023-02-01T04:26:17;877.40;;;815.88;;
13999;SDS011;7075;53.574;10.054;2023-02-01T04:28:43;870.65;;;808.53;;
13999;SDS011;7075;53.574;10.054;2023-02-01T04:31:12;860.70;;;799.97;;
13999;SDS011;7075;53.574;10.054;2023-02-01T04:33:38;887.38;;;824.47;;
13999;SDS011;7075;53.574;10.054;2023-02-01T04:36:04;864.20;;;800.85;;
13999;SDS011;7075;53.574;10.054;2023-02-01T04:38:29;861.63;;;799.25;;
13999;SDS011;7075;53.574;10.054;2023-02-01T04:40:57;861.65;;;800.03;;
13999;SDS011;7075;53.574;10.054;2023-02-01T04:43:23;849.03;;;788.85;;
13999;SDS011;7075;53.574;10.054;2023-02-01T04:45:58;873.33;;;812.03;;
13999;SDS011;7075;53.574;10.054;2023-02-01T04:48:23;859.65;;;798.88;;
13999;SDS011;7075;53.574;10.054;2023-02-01T04:50:49;862.40;;;802.73;;
13999;SDS011;7075;53.574;10.054;2023-02-01T04:53:14;868.30;;;807.90;;
13999;SDS011;7075;53.574;10.054;2023-02-01T04:55:41;883.63;;;819.83;;
13999;SDS011;7075;53.574;10.054;2023-02-01T04:58:07;870.90;;;809.78;;
13999;SDS011;7075;53.574;10.054;2023-02-01T05:00:33;847.28;;;788.03;;
13999;SDS011;7075;53.574;10.054;2023-02-01T05:02:58;885.20;;;823.00;;
13999;SDS011;7075;53.574;10.054;2023-02-01T05:05:24;900.77;;;836.77;;
13999;SDS011;7075;53.574;10.054;2023-02-01T05:07:50;843.15;;;784.20;;
13999;SDS011;7075;53.574;10.054;2023-02-01T05:10:15;872.30;;;811.23;;
13999;SDS011;7075;53.574;10.054;2023-02-01T05:12:42;887.47;;;826.47;;
13999;SDS011;7075;53.574;10.054;2023-02-01T05:15:27;880.90;;;820.17;;
13999;SDS011;7075;53.574;10.054;2023-02-01T05:17:52;872.67;;;811.97;;
13999;SDS011;7075;53.574;10.054;2023-02-01T05:20:18;867.03;;;808.00;;
13999;SDS011;7075;53.574;10.054;2023-02-01T05:22:43;842.50;;;786.33;;
13999;SDS011;7075;53.574;10.054;2023-02-01T05:25:09;836.97;;;780.70;;
13999;SDS011;7075;53.574;10.054;2023-02-01T05:27:34;803.65;;;750.15;;
13999;SDS011;7075;53.574;10.054;2023-02-01T05:30:00;813.30;;;758.07;;
13999;SDS011;7075;53.574;10.054;2023-02-01T05:32:27;863.38;;;803.53;;
13999;SDS011;7075;53.574;10.054;2023-02-01T05:34:53;850.95;;;790.97;;
13999;SDS011;7075;53.574;10.054;2023-02-01T05:37:18;899.60;;;835.13;;
13999;SDS011;7075;53.574;10.054;2023-02-01T05:39:44;900.63;;;836.93;;
13999;SDS011;7075;53.574;10.054;2023-02-01T05:42:09;887.50;;;825.50;;
13999;SDS011;7075;53.574;10.054;2023-02-01T05:44:35;970.20;;;901.08;;
13999;SDS011;7075;53.574;10.054;2023-02-01T05:47:00;975.23;;;904.53;;
13999;SDS011;7075;53.574;10.054;2023-02-01T05:49:26;982.43;;;911.17;;
13999;SDS011;7075;53.574;10.054;2023-02-01T05:51:52;964.65;;;895.45;;
13999;SDS011;7075;53.574;10.054;2023-02-01T05:54:17;943.53;;;874.25;;
13999;SDS011;7075;53.574;10.054;2023-02-01T05:56:43;981.80;;;907.50;;
13999;SDS011;7075;53.574;10.054;2023-02-01T05:59:09;908.27;;;843.07;;
13999;SDS011;7075;53.574;10.054;2023-02-01T06:01:35;951.10;;;878.30;;
13999;SDS011;7075;53.574;10.054;2023-02-01T06:04:00;979.43;;;904.60;;
13999;SDS011;7075;53.574;10.054;2023-02-01T06:06:26;1018.33;;;939.05;;
13999;SDS011;7075;53.574;10.054;2023-02-01T06:08:52;1005.17;;;928.83;;
13999;SDS011;7075;53.574;10.054;2023-02-01T06:11:17;985.40;;;911.50;;
13999;SDS011;7075;53.574;10.054;2023-02-01T06:13:43;1035.17;;;954.33;;
13999;SDS011;7075;53.574;10.054;2023-02-01T06:16:09;1046.93;;;964.73;;
13999;SDS011;7075;53.574;10.054;2023-02-01T06:18:34;1096.32;;;999.90;;
13999;SDS011;7075;53.574;10.054;2023-02-01T06:21:00;1033.18;;;952.10;;
13999;SDS011;7075;53.574;10.054;2023-02-01T06:23:26;999.30;;;921.05;;
13999;SDS011;7075;53.574;10.054;2023-02-01T06:25:59;1001.80;;;924.58;;
13999;SDS011;7075;53.574;10.054;2023-02-01T06:28:27;1036.97;;;955.22;;
13999;SDS011;7075;53.574;10.054;2023-02-01T06:30:53;1024.47;;;942.22;;
13999;SDS011;7075;53.574;10.054;2023-02-01T06:33:19;1027.45;;;944.95;;
13999;SDS011;7075;53.574;10.054;2023-02-01T06:35:45;1053.80;;;970.50;;
13999;SDS011;7075;53.574;10.054;2023-02-01T06:38:12;1013.03;;;934.00;;
13999;SDS011;7075;53.574;10.054;2023-02-01T06:40:38;955.35;;;881.85;;
13999;SDS011;7075;53.574;10.054;2023-02-01T06:43:07;898.50;;;829.03;;
13999;SDS011;7075;53.574;10.054;2023-02-01T06:45:33;896.33;;;827.50;;
13999;SDS011;7075;53.574;10.054;2023-02-01T06:47:58;904.97;;;835.88;;
13999;SDS011;7075;53.574;10.054;2023-02-01T06:50:25;937.45;;;864.90;;
13999;SDS011;7075;53.574;10.054;2023-02-01T06:52:52;993.95;;;917.08;;
13999;SDS011;7075;53.574;10.054;2023-02-01T06:55:18;965.42;;;890.67;;
13999;SDS011;7075;53.574;10.054;2023-02-01T06:57:43;956.92;;;883.17;;
13999;SDS011;7075;53.574;10.054;2023-02-01T07:00:09;873.35;;;807.28;;
13999;SDS011;7075;53.574;10.054;2023-02-01T07:02:35;912.70;;;844.55;;
13999;SDS011;7075;53.574;10.054;2023-02-01T07:05:01;908.57;;;838.83;;
13999;SDS011;7075;53.574;10.054;2023-02-01T07:07:27;861.43;;;797.23;;
13999;SDS011;7075;53.574;10.054;2023-02-01T07:09:52;879.77;;;812.80;;
13999;SDS011;7075;53.574;10.054;2023-02-01T07:12:18;854.22;;;790.47;;
13999;SDS011;7075;53.574;10.054;2023-02-01T07:14:44;887.95;;;821.20;;
13999;SDS011;7075;53.574;10.054;2023-02-01T07:17:09;884.13;;;817.40;;
13999;SDS011;7075;53.574;10.054;2023-02-01T07:19:35;886.40;;;818.77;;
13999;SDS011;7075;53.574;10.054;2023-02-01T07:22:00;898.77;;;832.13;;
13999;SDS011;7075;53.574;10.054;2023-02-01T07:24:26;878.67;;;813.28;;
13999;SDS011;7075;53.574;10.054;2023-02-01T07:26:51;949.63;;;878.00;;
13999;SDS011;7075;53.574;10.054;2023-02-01T07:29:17;954.87;;;879.67;;
13999;SDS011;7075;53.574;10.054;2023-02-01T07:31:43;945.03;;;871.60;;
13999;SDS011;7075;53.574;10.054;2023-02-01T07:34:09;947.83;;;875.53;;
13999;SDS011;7075;53.574;10.054;2023-02-01T07:36:35;918.83;;;848.80;;
13999;SDS011;7075;53.574;10.054;2023-02-01T07:39:01;923.88;;;854.85;;
13999;SDS011;7075;53.574;10.054;2023-02-01T07:41:27;822.78;;;762.85;;
13999;SDS011;7075;53.574;10.054;2023-02-01T07:43:53;825.30;;;765.63;;
13999;SDS011;7075;53.574;10.054;2023-02-01T07:46:19;825.25;;;764.17;;
13999;SDS011;7075;53.574;10.054;2023-02-01T07:48:45;888.75;;;821.10;;
13999;SDS011;7075;53.574;10.054;2023-02-01T07:51:11;947.33;;;875.05;;
13999;SDS011;7075;53.574;10.054;2023-02-01T07:53:39;944.17;;;872.95;;
13999;SDS011;7075;53.574;10.054;2023-02-01T07:56:09;953.80;;;882.10;;
13999;SDS011;7075;53.574;10.054;2023-02-01T07:58:37;951.20;;;880.08;;
13999;SDS011;7075;53.574;10.054;2023-02-01T08:01:04;968.83;;;896.28;;
13999;SDS011;7075;53.574;10.054;2023-02-01T08:03:45;988.95;;;914.67;;
13999;SDS011;7075;53.574;10.054;2023-02-01T08:06:15;968.65;;;894.72;;
13999;SDS011;7075;53.574;10.054;2023-02-01T08:08:40;989.42;;;914.90;;
13999;SDS011;7075;53.574;10.054;2023-02-01T08:11:07;980.17;;;906.97;;
13999;SDS011;7075;53.574;10.054;2023-02-01T08:13:33;987.08;;;912.70;;
13999;SDS011;7075;53.574;10.054;2023-02-01T08:16:01;973.08;;;899.63;;
13999;SDS011;7075;53.574;10.054;2023-02-01T08:18:28;963.45;;;891.72;;
13999;SDS011;7075;53.574;10.054;2023-02-01T08:20:54;969.95;;;895.00;;
13999;SDS011;7075;53.574;10.054;2023-02-01T08:23:21;950.95;;;875.95;;
13999;SDS011;7075;53.574;10.054;2023-02-01T08:25:48;968.33;;;893.33;;
13999;SDS011;7075;53.574;10.054;2023-02-01T08:28:14;956.25;;;881.97;;
13999;SDS011;7075;53.574;10.054;2023-02-01T08:30:40;947.03;;;875.03;;
13999;SDS011;7075;53.574;10.054;2023-02-01T08:33:08;963.47;;;890.42;;
13999;SDS011;7075;53.574;10.054;2023-02-01T08:35:34;930.85;;;860.88;;
13999;SDS011;7075;53.574;10.054;2023-02-01T08:38:01;888.72;;;823.70;;
13999;SDS011;7075;53.574;10.054;2023-02-01T08:40:27;879.23;;;812.90;;
13999;SDS011;7075;53.574;10.054;2023-02-01T08:42:53;801.70;;;744.85;;
13999;SDS011;7075;53.574;10.054;2023-02-01T08:45:25;768.55;;;716.80;;
13999;SDS011;7075;53.574;10.054;2023-02-01T08:47:56;723.75;;;675.33;;
13999;SDS011;7075;53.574;10.054;2023-02-01T08:50:22;727.25;;;678.05;;
13999;SDS011;7075;53.574;10.054;2023-02-01T08:52:49;777.17;;;722.97;;
13999;SDS011;7075;53.574;10.054;2023-02-01T08:55:15;738.10;;;687.10;;
13999;SDS011;7075;53.574;10.054;2023-02-01T08:57:41;750.33;;;698.42;;
13999;SDS011;7075;53.574;10.054;2023-02-01T09:00:09;731.25;;;681.58;;
13999;SDS011;7075;53.574;10.054;2023-02-01T09:02:38;743.50;;;692.97;;
13999;SDS011;7075;53.574;10.054;2023-02-01T09:05:04;760.30;;;709.05;;
13999;SDS011;7075;53.574;10.054;2023-02-01T09:07:31;751.67;;;700.05;;
13999;SDS011;7075;53.574;10.054;2023-02-01T09:09:58;741.67;;;691.47;;
13999;SDS011;7075;53.574;10.054;2023-02-01T09:12:26;754.47;;;702.67;;
13999;SDS011;7075;53.574;10.054;2023-02-01T09:14:56;772.90;;;719.67;;
13999;SDS011;7075;53.574;10.054;2023-02-01T09:17:24;767.58;;;715.17;;
13999;SDS011;7075;53.574;10.054;2023-02-01T09:19:51;762.08;;;710.53;;
13999;SDS011;7075;53.574;10.054;2023-02-01T09:22:17;737.47;;;687.20;;
13999;SDS011;7075;53.574;10.054;2023-02-01T09:24:42;742.95;;;692.50;;
13999;SDS011;7075;53.574;10.054;2023-02-01T09:27:08;729.33;;;679.65;;
13999;SDS011;7075;53.574;10.054;2023-02-01T09:29:35;732.83;;;682.45;;
13999;SDS011;7075;53.574;10.054;2023-02-01T09:32:04;736.45;;;686.10;;
13999;SDS011;7075;53.574;10.054;2023-02-01T09:34:31;679.60;;;634.90;;
13999;SDS011;7075;53.574;10.054;2023-02-01T09:36:58;676.10;;;631.90;;
13999;SDS011;7075;53.574;10.054;2023-02-01T09:39:24;714.53;;;668.17;;
13999;SDS011;7075;53.574;10.054;2023-02-01T09:47:03;707.00;;;661.50;;
13999;SDS011;7075;53.574;10.054;2023-02-01T09:49:36;784.72;;;732.78;;
13999;SDS011;7075;53.574;10.054;2023-02-01T09:52:10;770.30;;;719.83;;
13999;SDS011;7075;53.574;10.054;2023-02-01T09:54:42;794.53;;;741.40;;
13999;SDS011;7075;53.574;10.054;2023-02-01T09:57:28;774.95;;;722.92;;
13999;SDS011;7075;53.574;10.054;2023-02-01T10:00:33;789.08;;;734.90;;
13999;SDS011;7075;53.574;10.054;2023-02-01T10:03:02;804.47;;;748.88;;
13999;SDS011;7075;53.574;10.054;2023-02-01T10:05:43;801.35;;;745.63;;
13999;SDS011;7075;53.574;10.054;2023-02-01T10:09:01;815.03;;;757.55;;
13999;SDS011;7075;53.574;10.054;2023-02-01T10:15:03;792.45;;;736.88;;
13999;SDS011;7075;53.574;10.054;2023-02-01T10:27:02;779.60;;;726.28;;
13999;SDS011;7075;53.574;10.054;2023-02-01T10:29:59;783.67;;;729.60;;
13999;SDS011;7075;53.574;10.054;2023-02-01T10:32:30;780.53;;;726.90;;
13999;SDS011;7075;53.574;10.054;2023-02-01T10:34:58;754.08;;;703.40;;
13999;SDS011;7075;53.574;10.054;2023-02-01T10:37:32;762.22;;;710.08;;
13999;SDS011;7075;53.574;10.054;2023-02-01T10:40:00;794.00;;;737.45;;
13999;SDS011;7075;53.574;10.054;2023-02-01T10:42:57;793.63;;;735.70;;
13999;SDS011;7075;53.574;10.054;2023-02-01T10:45:27;772.30;;;717.10;;
13999;SDS011;7075;53.574;10.054;2023-02-01T10:47:55;775.40;;;720.30;;
13999;SDS011;7075;53.574;10.054;2023-02-01T10:53:41;708.05;;;660.45;;
13999;SDS011;7075;53.574;10.054;2023-02-01T10:56:14;717.83;;;670.45;;
13999;SDS011;7075;53.574;10.054;2023-02-01T10:58:49;715.45;;;667.80;;
13999;SDS011;7075;53.574;10.054;2023-02-01T11:01:21;734.80;;;686.35;;
13999;SDS011;7075;53.574;10.054;2023-02-01T11:04:10;731.33;;;682.83;;
13999;SDS011;7075;53.574;10.054;2023-02-01T11:06:45;725.33;;;677.70;;
13999;SDS011;7075;53.574;10.054;2023-02-01T11:09:21;687.55;;;641.85;;
13999;SDS011;7075;53.574;10.054;2023-02-01T11:17:04;769.67;;;716.13;;
13999;SDS011;7075;53.574;10.054;2023-02-01T11:20:02;750.20;;;699.15;;
13999;SDS011;7075;53.574;10.054;2023-02-01T11:22:33;764.03;;;710.97;;
13999;SDS011;7075;53.574;10.054;2023-02-01T11:24:59;769.42;;;716.80;;
13999;SDS011;7075;53.574;10.054;2023-02-01T11:27:32;730.60;;;680.72;;
13999;SDS011;7075;53.574;10.054;2023-02-01T11:30:00;749.97;;;699.03;;
13999;SDS011;7075;53.574;10.054;2023-02-01T11:32:29;715.22;;;666.80;;
13999;SDS011;7075;53.574;10.054;2023-02-01T11:34:57;707.65;;;660.33;;
13999;SDS011;7075;53.574;10.054;2023-02-01T11:37:33;697.30;;;650.45;;
13999;SDS011;7075;53.574;10.054;2023-02-01T11:40:23;714.25;;;667.35;;
13999;SDS011;7075;53.574;10.054;2023-02-01T11:43:25;705.90;;;658.93;;
13999;SDS011;7075;53.574;10.054;2023-02-01T11:46:03;720.73;;;673.27;;
13999;SDS011;7075;53.574;10.054;2023-02-01T11:48:42;705.08;;;658.58;;
13999;SDS011;7075;53.574;10.054;2023-02-01T11:54:02;728.25;;;679.30;;
13999;SDS011;7075;53.574;10.054;2023-02-01T12:08:21;684.50;;;640.45;;
13999;SDS011;7075;53.574;10.054;2023-02-01T12:16:35;742.70;;;695.00;;
13999;SDS011;7075;53.574;10.054;2023-02-01T12:22:21;718.80;;;672.47;;
13999;SDS011;7075;53.574;10.054;2023-02-01T12:24:57;745.15;;;695.42;;
13999;SDS011;7075;53.574;10.054;2023-02-01T12:36:22;798.03;;;742.45;;
13999;SDS011;7075;53.574;10.054;2023-02-01T12:41:46;795.03;;;741.33;;
13999;SDS011;7075;53.574;10.054;2023-02-01T12:47:26;779.22;;;726.33;;
13999;SDS011;7075;53.574;10.054;2023-02-01T12:52:49;929.88;;;861.88;;
13999;SDS011;7075;53.574;10.054;2023-02-01T12:58:12;875.23;;;812.60;;
13999;SDS011;7075;53.574;10.054;2023-02-01T13:00:49;835.93;;;778.27;;
13999;SDS011;7075;53.574;10.054;2023-02-01T13:03:37;850.30;;;790.08;;
13999;SDS011;7075;53.574;10.054;2023-02-01T13:06:08;932.10;;;862.75;;
13999;SDS011;7075;53.574;10.054;2023-02-01T13:08:56;891.92;;;827.10;;
13999;SDS011;7075;53.574;10.054;2023-02-01T13:11:44;892.13;;;826.47;;
13999;SDS011;7075;53.574;10.054;2023-02-01T13:16:48;878.65;;;816.53;;
13999;SDS011;7075;53.574;10.054;2023-02-01T13:22:03;844.25;;;785.15;;
13999;SDS011;7075;53.574;10.054;2023-02-01T13:24:35;889.53;;;824.17;;
13999;SDS011;7075;53.574;10.054;2023-02-01T13:27:05;888.92;;;822.38;;
13999;SDS011;7075;53.574;10.054;2023-02-01T13:29:30;830.08;;;770.58;;
13999;SDS011;7075;53.574;10.054;2023-02-01T13:32:13;670.70;;;628.03;;
13999;SDS011;7075;53.574;10.054;2023-02-01T13:37:39;751.97;;;704.17;;
13999;SDS011;7075;53.574;10.054;2023-02-01T13:40:23;753.40;;;705.45;;
13999;SDS011;7075;53.574;10.054;2023-02-01T13:43:00;782.55;;;730.38;;
13999;SDS011;7075;53.574;10.054;2023-02-01T13:45:32;783.17;;;729.25;;
13999;SDS011;7075;53.574;10.054;2023-02-01T13:48:02;809.58;;;751.63;;
13999;SDS011;7075;53.574;10.054;2023-02-01T13:50:33;775.80;;;720.97;;
13999;SDS011;7075;53.574;10.054;2023-02-01T13:53:04;782.40;;;730.38;;
13999;SDS011;7075;53.574;10.054;2023-02-01T13:55:40;773.90;;;723.17;;
13999;SDS011;7075;53.574;10.054;2023-02-01T14:03:48;738.88;;;689.78;;
13999;SDS011;7075;53.574;10.054;2023-02-01T14:17:30;770.90;;;721.20;;
13999;SDS011;7075;53.574;10.054;2023-02-01T14:19:27;730.30;;;682.90;;
13999;SDS011;7075;53.574;10.054;2023-02-01T14:21:57;751.63;;;701.72;;
13999;SDS011;7075;53.574;10.054;2023-02-01T14:24:27;729.80;;;681.53;;
13999;SDS011;7075;53.574;10.054;2023-02-01T14:26:56;717.88;;;671.40;;
13999;SDS011;7075;53.574;10.054;2023-02-01T14:32:04;749.37;;;699.90;;
13999;SDS011;7075;53.574;10.054;2023-02-01T14:42:20;687.92;;;643.78;;
13999;SDS011;7075;53.574;10.054;2023-02-01T14:45:46;754.47;;;705.45;;
13999;SDS011;7075;53.574;10.054;2023-02-01T14:55:41;732.60;;;683.75;;
13999;SDS011;7075;53.574;10.054;2023-02-01T15:09:36;777.90;;;726.60;;
13999;SDS011;7075;53.574;10.054;2023-02-01T15:17:37;779.83;;;726.30;;
13999;SDS011;7075;53.574;10.054;2023-02-01T15:20:24;764.80;;;711.80;;
13999;SDS011;7075;53.574;10.054;2023-02-01T15:25:21;799.70;;;743.93;;
13999;SDS011;7075;53.574;10.054;2023-02-01T15:27:48;784.97;;;728.15;;
13999;SDS011;7075;53.574;10.054;2023-02-01T15:30:19;770.65;;;716.40;;
13999;SDS011;7075;53.574;10.054;2023-02-01T15:32:47;784.78;;;729.78;;
13999;SDS011;7075;53.574;10.054;2023-02-01T15:38:42;785.65;;;731.30;;
13999;SDS011;7075;53.574;10.054;2023-02-01T15:43:41;804.73;;;747.97;;
13999;SDS011;7075;53.574;10.054;2023-02-01T15:49:01;763.17;;;708.20;;
13999;SDS011;7075;53.574;10.054;2023-02-01T15:51:28;766.72;;;711.15;;
13999;SDS011;7075;53.574;10.054;2023-02-01T15:56:33;733.03;;;680.88;;
13999;SDS011;7075;53.574;10.054;2023-02-01T15:59:02;732.72;;;683.38;;
13999;SDS011;7075;53.574;10.054;2023-02-01T16:01:34;748.03;;;697.20;;
13999;SDS011;7075;53.574;10.054;2023-02-01T16:04:04;758.28;;;705.78;;
13999;SDS011;7075;53.574;10.054;2023-02-01T16:06:48;736.37;;;684.93;;
13999;SDS011;7075;53.574;10.054;2023-02-01T16:09:14;713.93;;;665.97;;
13999;SDS011;7075;53.574;10.054;2023-02-01T16:11:47;720.03;;;672.28;;
13999;SDS011;7075;53.574;10.054;2023-02-01T16:14:19;741.55;;;689.38;;
13999;SDS011;7075;53.574;10.054;2023-02-01T16:16:45;746.08;;;696.00;;
13999;SDS011;7075;53.574;10.054;2023-02-01T16:19:11;738.17;;;685.97;;
13999;SDS011;7075;53.574;10.054;2023-02-01T16:21:36;757.33;;;704.13;;
13999;SDS011;7075;53.574;10.054;2023-02-01T16:24:02;751.87;;;698.47;;
13999;SDS011;7075;53.574;10.054;2023-02-01T16:26:29;751.63;;;698.13;;
13999;SDS011;7075;53.574;10.054;2023-02-01T16:28:56;759.65;;;704.95;;
13999;SDS011;7075;53.574;10.054;2023-02-01T16:31:25;760.58;;;704.80;;
13999;SDS011;7075;53.574;10.054;2023-02-01T16:33:53;764.05;;;709.33;;
13999;SDS011;7075;53.574;10.054;2023-02-01T16:36:19;767.80;;;711.67;;
13999;SDS011;7075;53.574;10.054;2023-02-01T16:38:46;771.67;;;715.63;;
13999;SDS011;7075;53.574;10.054;2023-02-01T16:41:14;759.33;;;704.72;;
13999;SDS011;7075;53.574;10.054;2023-02-01T16:43:49;759.25;;;704.15;;
13999;SDS011;7075;53.574;10.054;2023-02-01T16:46:17;776.00;;;720.78;;
13999;SDS011;7075;53.574;10.054;2023-02-01T16:49:00;806.50;;;748.05;;
13999;SDS011;7075;53.574;10.054;2023-02-01T16:51:30;784.45;;;728.55;;
13999;SDS011;7075;53.574;10.054;2023-02-01T16:53:57;775.42;;;719.65;;
13999;SDS011;7075;53.574;10.054;2023-02-01T16:56:33;783.28;;;726.80;;
13999;SDS011;7075;53.574;10.054;2023-02-01T16:59:00;781.63;;;723.03;;
13999;SDS011;7075;53.574;10.054;2023-02-01T17:01:26;777.13;;;719.17;;
13999;SDS011;7075;53.574;10.054;2023-02-01T17:03:52;745.10;;;690.08;;